createdAt,value
2017-11-17T00:00:32.262Z,10.20
2017-11-17T00:02:59.876Z,10.10
2017-11-17T00:05:27.473Z,10.10
2017-11-17T00:07:55.853Z,10.10
2017-11-17T00:10:24.214Z,10.10
2017-11-17T00:12:51.832Z,10.10
2017-11-17T00:15:19.426Z,10.10
2017-11-17T00:17:48.549Z,10.00
2017-11-17T00:20:16.913Z,10.10
2017-11-17T00:22:44.574Z,10.00
2017-11-17T00:25:12.234Z,10.10
2017-11-17T00:27:39.849Z,10.00
2017-11-17T00:30:07.477Z,10.10
2017-11-17T00:32:35.104Z,10.10
2017-11-17T00:35:03.478Z,10.10
2017-11-17T00:37:31.161Z,10.10
2017-11-17T00:39:58.786Z,10.20
2017-11-17T00:42:26.488Z,10.20
2017-11-17T00:44:54.113Z,10.20
2017-11-17T00:47:21.705Z,10.10
2017-11-17T00:49:50.829Z,10.10
2017-11-17T00:52:19.316Z,10.10
2017-11-17T00:54:47.772Z,10.10
2017-11-17T00:57:15.437Z,10.10
2017-11-17T00:59:43.053Z,10.10
2017-11-17T01:02:10.666Z,10.10
2017-11-17T01:04:38.340Z,10.10
2017-11-17T01:07:06.705Z,10.00
2017-11-17T01:09:34.323Z,10.00
2017-11-17T01:12:01.935Z,10.00
2017-11-17T01:14:29.589Z,10.10
2017-11-17T01:16:57.207Z,10.10
2017-11-17T01:19:24.803Z,10.10
2017-11-17T01:21:53.926Z,10.00
2017-11-17T01:24:22.391Z,10.10
2017-11-17T01:26:50.118Z,10.10
2017-11-17T01:29:17.718Z,10.00
2017-11-17T01:31:46.099Z,10.10
2017-11-17T01:34:13.694Z,10.10
2017-11-17T01:36:41.424Z,10.00
2017-11-17T01:39:09.086Z,10.00
2017-11-17T01:41:36.706Z,10.00
2017-11-17T01:44:04.312Z,10.00
2017-11-17T01:46:33.448Z,9.90
2017-11-17T01:49:01.070Z,9.90
2017-11-17T01:51:28.676Z,10.00
2017-11-17T01:53:56.289Z,10.00
2017-11-17T01:56:23.881Z,10.00
2017-11-17T01:58:52.342Z,10.00
2017-11-17T02:01:20.705Z,10.10
2017-11-17T02:03:48.317Z,10.10
2017-11-17T02:06:15.942Z,10.10
2017-11-17T02:08:43.566Z,10.10
2017-11-17T02:11:16.613Z,10.10
2017-11-17T02:13:45.001Z,10.10
2017-11-17T02:16:12.605Z,10.10
2017-11-17T02:18:40.220Z,10.10
2017-11-17T02:21:08.588Z,10.00
2017-11-17T02:23:36.974Z,10.00
2017-11-17T02:26:05.329Z,9.90
2017-11-17T02:28:32.937Z,9.90
2017-11-17T02:31:00.536Z,9.90
2017-11-17T02:33:28.131Z,9.90
2017-11-17T02:35:56.522Z,9.90
2017-11-17T02:38:24.974Z,9.80
2017-11-17T02:40:52.645Z,9.80
2017-11-17T02:43:20.247Z,9.80
2017-11-17T02:45:47.862Z,9.80
2017-11-17T02:48:15.463Z,9.80
2017-11-17T02:50:43.100Z,9.80
2017-11-17T02:53:11.457Z,9.80
2017-11-17T02:55:39.900Z,9.80
2017-11-17T02:58:07.489Z,9.80
2017-11-17T03:00:35.106Z,9.80
2017-11-17T03:03:02.709Z,9.90
2017-11-17T03:05:30.332Z,9.90
2017-11-17T03:07:57.938Z,9.90
2017-11-17T03:10:25.566Z,9.90
2017-11-17T03:12:53.188Z,9.90
2017-11-17T03:15:21.575Z,9.90
2017-11-17T03:17:50.050Z,9.80
2017-11-17T03:20:18.433Z,9.80
2017-11-17T03:22:46.798Z,9.80
2017-11-17T03:25:14.398Z,9.70
2017-11-17T03:27:42.022Z,9.70
2017-11-17T03:30:09.696Z,9.70
2017-11-17T03:32:38.089Z,9.60
2017-11-17T03:35:06.445Z,9.60
2017-11-17T03:37:35.654Z,9.50
2017-11-17T03:40:04.089Z,9.50
2017-11-17T03:42:31.788Z,9.50
2017-11-17T03:45:00.884Z,9.40
2017-11-17T03:47:28.550Z,9.40
2017-11-17T03:49:56.912Z,9.40
2017-11-17T03:52:24.522Z,9.40
2017-11-17T03:54:52.115Z,9.30
2017-11-17T03:57:19.726Z,9.30
2017-11-17T03:59:48.094Z,9.20
2017-11-17T04:02:17.199Z,9.20
2017-11-17T04:04:45.679Z,9.10
2017-11-17T04:07:13.343Z,9.10
2017-11-17T04:09:41.721Z,9.00
2017-11-17T04:12:09.304Z,9.00
2017-11-17T04:14:37.957Z,8.90
2017-11-17T04:17:07.054Z,8.80
2017-11-17T04:19:36.165Z,8.80
2017-11-17T04:22:04.527Z,8.80
2017-11-17T04:24:32.139Z,8.80
2017-11-17T04:26:59.766Z,8.80
2017-11-17T04:29:27.416Z,8.80
2017-11-17T04:31:55.774Z,8.80
2017-11-17T04:34:23.395Z,8.80
2017-11-17T04:36:51.035Z,8.80
2017-11-17T04:39:19.419Z,8.80
2017-11-17T04:41:47.767Z,8.80
2017-11-17T04:44:15.445Z,8.80
2017-11-17T04:46:43.818Z,8.80
2017-11-17T04:49:11.489Z,8.80
2017-11-17T04:51:39.146Z,8.80
2017-11-17T04:54:06.813Z,8.70
2017-11-17T04:56:35.939Z,8.50
2017-11-17T04:59:04.289Z,8.50
2017-11-17T05:01:32.665Z,8.40
2017-11-17T05:04:00.334Z,8.40
2017-11-17T05:06:28.819Z,8.20
2017-11-17T05:08:57.182Z,8.20
2017-11-17T05:11:24.816Z,8.20
2017-11-17T05:13:52.401Z,8.10
2017-11-17T05:16:20.080Z,8.10
2017-11-17T05:18:49.178Z,8.00
2017-11-17T05:21:18.387Z,8.00
2017-11-17T05:23:46.761Z,8.00
2017-11-17T05:26:15.148Z,8.10
2017-11-17T05:28:43.522Z,8.00
2017-11-17T05:31:12.722Z,8.00
2017-11-17T05:33:41.160Z,8.00
2017-11-17T05:36:08.767Z,8.00
2017-11-17T05:38:37.194Z,8.00
2017-11-17T05:41:04.787Z,7.90
2017-11-17T05:43:33.182Z,7.90
2017-11-17T05:46:00.842Z,7.90
2017-11-17T05:48:28.464Z,7.90
2017-11-17T05:50:56.062Z,7.90
2017-11-17T05:53:23.725Z,7.90
2017-11-17T05:55:51.331Z,7.90
2017-11-17T05:58:18.963Z,7.90
2017-11-17T06:00:47.317Z,7.90
2017-11-17T06:03:14.997Z,7.80
2017-11-17T06:05:42.667Z,7.80
2017-11-17T06:08:11.042Z,7.80
2017-11-17T06:10:38.701Z,7.70
2017-11-17T06:13:06.372Z,7.80
2017-11-17T06:15:34.846Z,7.70
2017-11-17T06:18:03.221Z,7.60
2017-11-17T06:20:30.834Z,7.60
2017-11-17T06:22:58.429Z,7.60
2017-11-17T06:25:26.049Z,7.60
2017-11-17T06:27:53.646Z,7.50
2017-11-17T06:30:21.333Z,7.50
2017-11-17T06:32:48.922Z,7.50
2017-11-17T06:35:17.318Z,7.40
2017-11-17T06:37:44.937Z,7.40
2017-11-17T06:40:12.606Z,7.40
2017-11-17T06:42:40.989Z,7.30
2017-11-17T06:45:09.461Z,7.30
2017-11-17T06:47:37.063Z,7.20
2017-11-17T06:50:04.698Z,7.20
2017-11-17T06:52:33.178Z,7.20
2017-11-17T06:55:01.550Z,7.20
2017-11-17T06:57:29.227Z,7.20
2017-11-17T06:59:57.693Z,7.20
2017-11-17T07:02:25.303Z,7.20
2017-11-17T07:04:52.942Z,7.00
2017-11-17T07:07:21.322Z,7.10
2017-11-17T07:09:49.682Z,7.20
2017-11-17T07:12:18.071Z,7.10
2017-11-17T07:14:46.540Z,7.10
2017-11-17T07:17:14.208Z,7.10
2017-11-17T07:19:41.930Z,7.10
2017-11-17T07:22:09.629Z,7.10
2017-11-17T07:24:37.300Z,7.10
2017-11-17T07:27:05.777Z,7.10
2017-11-17T07:29:33.446Z,7.10
2017-11-17T07:32:01.821Z,7.00
2017-11-17T07:34:30.297Z,7.00
2017-11-17T07:36:57.881Z,7.00
2017-11-17T07:39:26.354Z,7.00
2017-11-17T07:41:54.833Z,7.00
2017-11-17T07:44:23.315Z,7.10
2017-11-17T07:46:51.699Z,7.10
2017-11-17T07:49:20.098Z,7.00
2017-11-17T07:51:47.698Z,7.00
2017-11-17T07:54:15.312Z,7.00
2017-11-17T07:56:43.682Z,7.00
2017-11-17T07:59:12.161Z,7.00
2017-11-17T08:01:40.522Z,7.00
2017-11-17T08:04:08.147Z,7.00
2017-11-17T08:06:35.752Z,7.00
2017-11-17T08:09:03.382Z,7.00
2017-11-17T08:11:31.094Z,7.00
2017-11-17T08:13:59.448Z,7.00
2017-11-17T08:16:27.065Z,7.00
2017-11-17T08:18:54.697Z,7.10
2017-11-17T08:21:23.169Z,7.10
2017-11-17T08:23:50.761Z,7.10
2017-11-17T08:26:18.406Z,7.20
2017-11-17T08:28:46.753Z,7.20
2017-11-17T08:31:14.438Z,7.20
2017-11-17T08:33:43.628Z,7.30
2017-11-17T08:36:11.255Z,7.30
2017-11-17T08:38:38.861Z,7.30
2017-11-17T08:41:07.404Z,7.40
2017-11-17T08:43:34.981Z,7.30
2017-11-17T08:46:02.603Z,7.40
2017-11-17T08:48:30.238Z,7.40
2017-11-17T08:50:57.889Z,7.40
2017-11-17T08:53:27.094Z,7.50
2017-11-17T08:55:56.194Z,7.50
2017-11-17T08:58:24.577Z,7.60
2017-11-17T09:00:52.946Z,7.60
2017-11-17T09:03:21.332Z,7.60
2017-11-17T09:05:48.994Z,7.60
2017-11-17T09:08:17.474Z,7.70
2017-11-17T09:10:45.839Z,7.70
2017-11-17T09:13:13.454Z,7.70
2017-11-17T09:15:41.138Z,7.70
2017-11-17T09:18:08.745Z,7.80
2017-11-17T09:20:37.110Z,7.90
2017-11-17T09:23:04.730Z,7.90
2017-11-17T09:25:32.330Z,7.90
2017-11-17T09:28:00.681Z,8.00
2017-11-17T09:30:28.369Z,8.00
2017-11-17T09:32:56.067Z,8.10
2017-11-17T09:35:24.450Z,8.20
2017-11-17T09:37:52.798Z,8.20
2017-11-17T09:40:21.184Z,8.20
2017-11-17T09:42:49.561Z,8.30
2017-11-17T09:45:18.673Z,8.30
2017-11-17T09:47:47.043Z,8.40
2017-11-17T09:50:14.664Z,8.40
2017-11-17T09:52:42.265Z,8.40
2017-11-17T09:55:11.391Z,8.50
2017-11-17T09:57:39.753Z,8.50
2017-11-17T10:00:08.234Z,8.60
2017-11-17T10:02:36.668Z,8.60
2017-11-17T10:05:04.368Z,8.60
2017-11-17T10:07:32.732Z,8.70
2017-11-17T10:10:00.409Z,8.70
2017-11-17T10:12:28.893Z,8.70
2017-11-17T10:14:56.474Z,8.70
2017-11-17T10:17:24.870Z,8.80
2017-11-17T10:19:52.534Z,8.80
2017-11-17T10:22:20.161Z,8.80
2017-11-17T10:24:48.526Z,8.90
2017-11-17T10:27:16.207Z,8.90
2017-11-17T10:29:43.789Z,8.90
2017-11-17T10:32:12.156Z,9.00
2017-11-17T10:34:40.524Z,9.00
2017-11-17T10:37:08.181Z,9.00
2017-11-17T10:39:36.550Z,9.10
2017-11-17T10:42:04.234Z,9.00
2017-11-17T10:44:31.903Z,9.10
2017-11-17T10:47:00.280Z,9.20
2017-11-17T10:49:28.661Z,9.20
2017-11-17T10:51:57.044Z,9.30
2017-11-17T10:54:25.519Z,9.30
2017-11-17T10:56:57.080Z,9.30
2017-11-17T10:59:25.462Z,9.40
2017-11-17T11:01:53.812Z,9.40
2017-11-17T11:04:21.434Z,9.40
2017-11-17T11:06:49.031Z,9.40
2017-11-17T11:09:16.705Z,9.40
2017-11-17T11:11:49.069Z,9.40
2017-11-17T11:14:16.756Z,9.40
2017-11-17T11:16:44.478Z,9.50
2017-11-17T11:19:12.189Z,9.50
2017-11-17T11:21:40.633Z,9.50
2017-11-17T11:24:08.331Z,9.50
2017-11-17T11:26:36.711Z,9.60
2017-11-17T11:29:05.088Z,9.60
2017-11-17T11:31:33.483Z,9.60
2017-11-17T11:34:01.855Z,9.60
2017-11-17T11:36:30.228Z,9.70
2017-11-17T11:38:57.895Z,9.70
2017-11-17T11:41:26.330Z,9.80
2017-11-17T11:43:53.939Z,9.80
2017-11-17T11:46:22.324Z,9.80
2017-11-17T11:48:50.798Z,9.90
2017-11-17T11:51:18.453Z,9.90
2017-11-17T11:53:46.032Z,9.90
2017-11-17T11:56:14.410Z,9.90
2017-11-17T11:58:42.857Z,9.90
2017-11-17T12:01:10.534Z,9.90
2017-11-17T12:03:38.202Z,10.00
2017-11-17T12:06:05.865Z,9.90
2017-11-17T12:08:33.525Z,10.00
2017-11-17T12:11:01.200Z,10.00
2017-11-17T12:13:29.587Z,10.10
2017-11-17T12:15:57.946Z,10.10
2017-11-17T12:18:25.564Z,10.10
2017-11-17T12:20:53.186Z,10.10
2017-11-17T12:23:21.661Z,10.10
2017-11-17T12:25:49.258Z,10.10
2017-11-17T12:28:16.991Z,10.10
2017-11-17T12:30:45.350Z,10.20
2017-11-17T12:33:13.780Z,10.20
2017-11-17T12:35:41.405Z,10.20
2017-11-17T12:38:09.017Z,10.20
2017-11-17T12:40:36.615Z,10.20
2017-11-17T12:43:04.243Z,10.20
2017-11-17T12:45:31.833Z,10.20
2017-11-17T12:47:59.438Z,10.20
2017-11-17T12:50:27.826Z,10.30
2017-11-17T12:52:55.421Z,10.20
2017-11-17T12:55:23.038Z,10.20
2017-11-17T12:57:51.506Z,10.20
2017-11-17T13:00:19.890Z,10.30
2017-11-17T13:02:48.262Z,10.30
2017-11-17T13:05:16.654Z,10.30
2017-11-17T13:07:45.118Z,10.30
2017-11-17T13:10:12.781Z,10.30
2017-11-17T13:12:40.369Z,10.30
2017-11-17T13:15:08.822Z,10.30
2017-11-17T13:17:36.417Z,10.20
2017-11-17T13:20:04.833Z,10.30
2017-11-17T13:22:32.420Z,10.30
2017-11-17T13:25:02.555Z,10.20
2017-11-17T13:27:31.039Z,10.30
2017-11-17T13:29:59.419Z,10.30
2017-11-17T13:32:27.801Z,10.30
2017-11-17T13:34:56.168Z,10.30
2017-11-17T13:37:23.776Z,10.30
2017-11-17T13:39:51.398Z,10.30
2017-11-17T13:42:19.123Z,10.30
2017-11-17T13:44:46.718Z,10.30
2017-11-17T13:47:14.381Z,10.30
2017-11-17T13:49:41.987Z,10.30
2017-11-17T13:52:09.706Z,10.30
2017-11-17T13:54:38.076Z,10.30
2017-11-17T13:57:05.699Z,10.20
2017-11-17T13:59:33.299Z,10.30
2017-11-17T14:02:00.919Z,10.30
2017-11-17T14:04:28.510Z,10.30
2017-11-17T14:06:56.127Z,10.30
2017-11-17T14:09:23.726Z,10.30
2017-11-17T14:11:51.362Z,10.20
2017-11-17T14:14:19.151Z,10.20
2017-11-17T14:16:46.848Z,10.10
2017-11-17T14:19:15.978Z,10.10
2017-11-17T14:21:44.401Z,10.10
2017-11-17T14:24:12.022Z,10.10
2017-11-17T14:26:40.396Z,10.00
2017-11-17T14:29:08.781Z,10.00
2017-11-17T14:31:37.147Z,10.00
2017-11-17T14:34:05.541Z,10.00
2017-11-17T14:36:33.174Z,10.00
2017-11-17T14:39:01.566Z,9.90
2017-11-17T14:41:30.036Z,9.90
2017-11-17T14:43:57.663Z,9.90
2017-11-17T14:46:25.370Z,9.90
2017-11-17T14:48:53.744Z,9.80
2017-11-17T14:51:21.339Z,9.80
2017-11-17T14:53:48.969Z,9.80
2017-11-17T14:56:16.588Z,9.80
2017-11-17T14:58:44.172Z,9.70
2017-11-17T15:01:11.812Z,9.70
2017-11-17T15:03:39.409Z,9.60
2017-11-17T15:06:07.017Z,9.60
2017-11-17T15:08:34.633Z,9.60
2017-11-17T15:11:03.116Z,9.50
2017-11-17T15:13:30.776Z,9.50
2017-11-17T15:15:58.450Z,9.50
2017-11-17T15:18:26.815Z,9.40
2017-11-17T15:20:55.195Z,9.30
2017-11-17T15:23:22.875Z,9.30
2017-11-17T15:25:51.253Z,9.20
2017-11-17T15:28:18.919Z,9.30
2017-11-17T15:30:47.287Z,9.20
2017-11-17T15:33:15.675Z,9.10
2017-11-17T15:35:44.048Z,9.10
2017-11-17T15:38:12.417Z,9.00
2017-11-17T15:40:40.011Z,9.00
2017-11-17T15:43:07.716Z,9.00
2017-11-17T15:45:35.318Z,8.90
2017-11-17T15:48:03.797Z,8.90
2017-11-17T15:50:31.391Z,8.90
2017-11-17T15:52:59.001Z,8.80
2017-11-17T15:55:26.603Z,8.80
2017-11-17T15:57:55.061Z,8.70
2017-11-17T16:00:24.162Z,8.70
2017-11-17T16:02:52.540Z,8.70
2017-11-17T16:05:20.927Z,8.60
2017-11-17T16:07:49.319Z,8.60
2017-11-17T16:10:17.669Z,8.50
2017-11-17T16:12:45.345Z,8.50
2017-11-17T16:15:13.817Z,8.50
2017-11-17T16:17:41.405Z,8.40
2017-11-17T16:20:09.862Z,8.40
2017-11-17T16:22:37.449Z,8.40
2017-11-17T16:25:05.846Z,8.40
2017-11-17T16:27:33.480Z,8.30
2017-11-17T16:30:01.861Z,8.30
2017-11-17T16:32:30.232Z,8.30
2017-11-17T16:34:57.905Z,8.30
2017-11-17T16:37:26.279Z,8.20
2017-11-17T16:39:55.412Z,8.20
2017-11-17T16:42:23.038Z,8.20
2017-11-17T16:44:51.520Z,8.10
2017-11-17T16:47:19.884Z,8.10
2017-11-17T16:49:47.506Z,8.10
2017-11-17T16:52:15.103Z,8.10
2017-11-17T16:54:42.752Z,8.10
2017-11-17T16:57:10.365Z,8.00
2017-11-17T16:59:38.732Z,8.00
2017-11-17T17:02:07.122Z,8.00
2017-11-17T17:04:35.486Z,7.90
2017-11-17T17:07:03.975Z,7.90
2017-11-17T17:09:32.341Z,7.80
2017-11-17T17:12:00.015Z,7.80
2017-11-17T17:14:28.391Z,7.80
2017-11-17T17:16:56.773Z,7.80
2017-11-17T17:19:25.126Z,7.70
2017-11-17T17:21:52.809Z,7.70
2017-11-17T17:24:21.171Z,7.70
2017-11-17T17:26:48.814Z,7.70
2017-11-17T17:29:16.522Z,7.70
2017-11-17T17:31:44.892Z,7.60
2017-11-17T17:34:13.382Z,7.60
2017-11-17T17:36:41.772Z,7.60
2017-11-17T17:39:10.152Z,7.50
2017-11-17T17:41:38.628Z,7.50
2017-11-17T17:44:07.017Z,7.50
2017-11-17T17:46:35.386Z,7.50
2017-11-17T17:49:03.765Z,7.50
2017-11-17T17:51:32.139Z,7.50
2017-11-17T17:54:00.621Z,7.50
2017-11-17T17:56:28.218Z,7.50
2017-11-17T17:58:55.949Z,7.50
2017-11-17T18:01:25.051Z,7.40
2017-11-17T18:03:53.439Z,7.40
2017-11-17T18:06:21.794Z,7.40
2017-11-17T18:08:49.433Z,7.40
2017-11-17T18:11:17.125Z,7.40
2017-11-17T18:13:44.726Z,7.40
2017-11-17T18:16:12.470Z,7.40
2017-11-17T18:18:40.943Z,7.40
2017-11-17T18:21:09.425Z,7.50
2017-11-17T18:23:37.806Z,7.50
2017-11-17T18:26:05.470Z,7.50
2017-11-17T18:28:33.843Z,7.50
2017-11-17T18:31:02.333Z,7.60
2017-11-17T18:33:30.037Z,7.50
2017-11-17T18:35:57.674Z,7.60
2017-11-17T18:38:25.229Z,7.60
2017-11-17T18:40:53.639Z,7.70
2017-11-17T18:43:21.258Z,7.60
2017-11-17T18:45:49.655Z,7.70
2017-11-17T18:48:18.075Z,7.70
2017-11-17T18:50:46.441Z,7.80
2017-11-17T18:53:14.020Z,7.70
2017-11-17T18:55:41.637Z,7.70
2017-11-17T18:58:09.989Z,7.80
2017-11-17T19:00:37.678Z,7.80
2017-11-17T19:03:05.244Z,7.80
2017-11-17T19:05:33.603Z,7.80
2017-11-17T19:08:02.035Z,7.80
2017-11-17T19:10:29.599Z,7.80
2017-11-17T19:12:57.222Z,7.80
2017-11-17T19:15:25.639Z,7.80
2017-11-17T19:17:53.993Z,7.90
2017-11-17T19:20:22.445Z,7.90
2017-11-17T19:22:51.565Z,7.80
2017-11-17T19:25:19.922Z,7.80
2017-11-17T19:27:49.036Z,7.80
2017-11-17T19:30:17.416Z,7.80
2017-11-17T19:32:45.009Z,7.80
2017-11-17T19:35:12.631Z,7.80
2017-11-17T19:37:41.099Z,7.70
2017-11-17T19:40:08.760Z,7.70
2017-11-17T19:42:36.363Z,7.70
2017-11-17T19:45:04.756Z,7.70
2017-11-17T19:47:32.364Z,7.70
2017-11-17T19:50:00.033Z,7.70
2017-11-17T19:52:28.406Z,7.70
2017-11-17T19:54:56.079Z,7.70
2017-11-17T19:57:25.177Z,7.70
2017-11-17T19:59:53.551Z,7.80
2017-11-17T20:02:22.645Z,7.70
2017-11-17T20:04:50.261Z,7.70
2017-11-17T20:07:17.863Z,7.80
2017-11-17T20:09:45.483Z,7.80
2017-11-17T20:12:13.066Z,7.80
2017-11-17T20:14:40.673Z,7.80
2017-11-17T20:17:09.144Z,7.80
2017-11-17T20:19:37.621Z,7.90
2017-11-17T20:22:06.006Z,7.80
2017-11-17T20:24:33.604Z,7.80
2017-11-17T20:27:01.224Z,7.90
2017-11-17T20:29:29.587Z,7.90
2017-11-17T20:31:57.261Z,7.90
2017-11-17T20:34:25.630Z,8.00
2017-11-17T20:36:53.259Z,7.90
2017-11-17T20:39:20.876Z,8.00
2017-11-17T20:41:50.003Z,7.90
2017-11-17T20:44:17.634Z,8.00
2017-11-17T20:46:46.013Z,8.00
2017-11-17T20:49:15.106Z,8.00
2017-11-17T20:51:44.343Z,8.00
2017-11-17T20:54:11.969Z,8.00
2017-11-17T20:56:40.437Z,7.90
2017-11-17T20:59:08.022Z,7.90
2017-11-17T21:01:36.374Z,7.90
2017-11-17T21:04:03.986Z,7.90
2017-11-17T21:06:31.569Z,7.90
2017-11-17T21:08:59.188Z,7.90
2017-11-17T21:11:27.552Z,7.80
2017-11-17T21:13:55.173Z,7.80
2017-11-17T21:16:22.757Z,7.80
2017-11-17T21:18:50.387Z,7.80
2017-11-17T21:21:17.986Z,7.70
2017-11-17T21:23:45.644Z,7.70
2017-11-17T21:26:13.255Z,7.70
2017-11-17T21:28:40.885Z,7.60
2017-11-17T21:31:08.487Z,7.60
2017-11-17T21:33:36.222Z,7.60
2017-11-17T21:36:04.588Z,7.60
2017-11-17T21:38:32.250Z,7.60
2017-11-17T21:40:59.922Z,7.60
2017-11-17T21:43:28.303Z,7.50
2017-11-17T21:45:56.716Z,7.50
2017-11-17T21:48:25.045Z,7.50
2017-11-17T21:50:52.730Z,7.50
2017-11-17T21:53:21.101Z,7.40
2017-11-17T21:55:48.731Z,7.40
2017-11-17T21:58:16.322Z,7.40
2017-11-17T22:00:43.937Z,7.40
2017-11-17T22:03:11.550Z,7.40
2017-11-17T22:05:39.235Z,7.30
2017-11-17T22:08:07.598Z,7.20
2017-11-17T22:10:35.973Z,7.20
2017-11-17T22:13:03.570Z,7.20
2017-11-17T22:15:31.194Z,7.20
2017-11-17T22:17:58.866Z,7.10
2017-11-17T22:20:27.247Z,7.10
2017-11-17T22:22:55.612Z,7.10
2017-11-17T22:25:23.287Z,7.00
2017-11-17T22:27:51.675Z,7.00
2017-11-17T22:30:20.030Z,6.90
2017-11-17T22:32:47.710Z,6.90
2017-11-17T22:35:15.379Z,6.90
2017-11-17T22:37:43.845Z,6.80
2017-11-17T22:40:11.516Z,6.80
2017-11-17T22:42:39.915Z,6.70
2017-11-17T22:45:07.519Z,6.70
2017-11-17T22:47:35.227Z,6.70
2017-11-17T22:50:03.599Z,6.70
2017-11-17T22:52:31.273Z,6.70
2017-11-17T22:54:59.752Z,6.70
2017-11-17T22:57:28.142Z,6.60
2017-11-17T22:59:56.502Z,6.60
2017-11-17T23:02:24.124Z,6.60
2017-11-17T23:04:51.830Z,6.60
2017-11-17T23:07:20.219Z,6.70
2017-11-17T23:09:48.573Z,6.60
2017-11-17T23:12:16.250Z,6.60
2017-11-17T23:14:43.836Z,6.60
2017-11-17T23:17:12.303Z,6.60
2017-11-17T23:19:40.788Z,6.60
2017-11-17T23:22:09.153Z,6.60
2017-11-17T23:24:36.769Z,6.60
2017-11-17T23:27:04.370Z,6.60
2017-11-17T23:29:31.988Z,6.60
2017-11-17T23:31:59.587Z,6.60
2017-11-17T23:34:27.274Z,6.60
2017-11-17T23:36:55.642Z,6.60
2017-11-17T23:39:23.313Z,6.60
2017-11-17T23:41:51.691Z,6.70
2017-11-17T23:44:20.098Z,6.70
2017-11-17T23:46:47.696Z,6.70
2017-11-17T23:49:15.407Z,6.80
2017-11-17T23:51:43.768Z,6.80
2017-11-17T23:54:11.436Z,6.80
2017-11-17T23:56:39.038Z,6.80
2017-11-17T23:59:06.628Z,6.80
